Lubers, Colorado
Current Conditions -  °F | °C
As of 5:53 PM on Thursday 18 Dec 2014 (Local Time) from KLAA Reporting Station
Clear Clear  
Wind Chill: 26°   Ceiling: Unl
Heat Index: 32°   Visibility: 9mi
Dew Point: 28°   Wind: 7mph
Humidity: 85%   Direction: 50°NE
Pressure: 30.06"   Gusts: NA
Location:  38.0584°N, 102.928°W
Report Text: KLAA 190053Z AUTO 05006KT 9SM CLR 00/M02 A3006 RMK AO2 SLP197 T00001022
Loading
Personal Weather Stations






























Interactive Weather Map New forecast layout! Learn more

10-Day Weather Forecast

Advertisements
Track Severe Weather on mobile